sensor_id;sensor_type;location;lat;lon;timestamp;P1;durP1;ratioP1;P2;durP2;ratioP2
19965;SDS011;10144;50.874;4.762;2023-08-21T00:00:19;9.55;;;2.70;;
19965;SDS011;10144;50.874;4.762;2023-08-21T00:02:44;7.43;;;2.60;;
19965;SDS011;10144;50.874;4.762;2023-08-21T00:05:11;11.38;;;3.03;;
19965;SDS011;10144;50.874;4.762;2023-08-21T00:07:37;11.65;;;2.55;;
19965;SDS011;10144;50.874;4.762;2023-08-21T00:10:03;8.18;;;2.75;;
19965;SDS011;10144;50.874;4.762;2023-08-21T00:12:33;14.38;;;2.60;;
19965;SDS011;10144;50.874;4.762;2023-08-21T00:17:29;14.90;;;2.80;;
19965;SDS011;10144;50.874;4.762;2023-08-21T00:19:54;8.93;;;2.80;;
19965;SDS011;10144;50.874;4.762;2023-08-21T00:22:21;11.10;;;3.05;;
19965;SDS011;10144;50.874;4.762;2023-08-21T00:24:49;10.50;;;2.67;;
19965;SDS011;10144;50.874;4.762;2023-08-21T00:27:15;9.73;;;3.05;;
19965;SDS011;10144;50.874;4.762;2023-08-21T00:29:41;8.65;;;2.50;;
19965;SDS011;10144;50.874;4.762;2023-08-21T00:32:07;13.05;;;2.90;;
19965;SDS011;10144;50.874;4.762;2023-08-21T00:34:33;11.60;;;2.60;;
19965;SDS011;10144;50.874;4.762;2023-08-21T00:36:59;9.85;;;2.55;;
19965;SDS011;10144;50.874;4.762;2023-08-21T00:39:26;9.73;;;2.58;;
19965;SDS011;10144;50.874;4.762;2023-08-21T00:41:57;10.27;;;2.80;;
19965;SDS011;10144;50.874;4.762;2023-08-21T00:44:23;13.77;;;2.92;;
19965;SDS011;10144;50.874;4.762;2023-08-21T00:46:49;9.02;;;2.60;;
19965;SDS011;10144;50.874;4.762;2023-08-21T00:49:15;12.02;;;2.78;;
19965;SDS011;10144;50.874;4.762;2023-08-21T00:51:41;8.63;;;2.50;;
19965;SDS011;10144;50.874;4.762;2023-08-21T00:54:06;13.32;;;2.88;;
19965;SDS011;10144;50.874;4.762;2023-08-21T00:56:32;9.93;;;2.65;;
19965;SDS011;10144;50.874;4.762;2023-08-21T00:59:01;12.20;;;2.90;;
19965;SDS011;10144;50.874;4.762;2023-08-21T01:01:29;9.88;;;2.40;;
19965;SDS011;10144;50.874;4.762;2023-08-21T01:03:55;8.80;;;2.40;;
19965;SDS011;10144;50.874;4.762;2023-08-21T01:06:21;8.73;;;2.22;;
19965;SDS011;10144;50.874;4.762;2023-08-21T01:09:24;8.38;;;2.30;;
19965;SDS011;10144;50.874;4.762;2023-08-21T01:12:11;12.85;;;2.97;;
19965;SDS011;10144;50.874;4.762;2023-08-21T01:15:02;10.27;;;2.95;;
19965;SDS011;10144;50.874;4.762;2023-08-21T01:17:35;11.13;;;2.72;;
19965;SDS011;10144;50.874;4.762;2023-08-21T01:20:05;13.35;;;2.80;;
19965;SDS011;10144;50.874;4.762;2023-08-21T01:22:38;11.07;;;2.95;;
19965;SDS011;10144;50.874;4.762;2023-08-21T01:25:05;13.35;;;2.78;;
19965;SDS011;10144;50.874;4.762;2023-08-21T01:27:32;11.70;;;2.90;;
19965;SDS011;10144;50.874;4.762;2023-08-21T01:35:18;11.35;;;3.10;;
19965;SDS011;10144;50.874;4.762;2023-08-21T01:37:52;13.25;;;2.40;;
19965;SDS011;10144;50.874;4.762;2023-08-21T01:40:23;10.02;;;2.63;;
19965;SDS011;10144;50.874;4.762;2023-08-21T01:42:52;8.43;;;2.60;;
19965;SDS011;10144;50.874;4.762;2023-08-21T01:45:21;11.43;;;2.60;;
19965;SDS011;10144;50.874;4.762;2023-08-21T01:47:53;9.43;;;2.70;;
19965;SDS011;10144;50.874;4.762;2023-08-21T01:50:20;11.13;;;2.63;;
19965;SDS011;10144;50.874;4.762;2023-08-21T01:52:46;17.02;;;2.50;;
19965;SDS011;10144;50.874;4.762;2023-08-21T01:55:11;10.15;;;2.50;;
19965;SDS011;10144;50.874;4.762;2023-08-21T01:57:43;11.05;;;2.45;;
19965;SDS011;10144;50.874;4.762;2023-08-21T02:00:11;9.95;;;2.72;;
19965;SDS011;10144;50.874;4.762;2023-08-21T02:02:39;10.90;;;3.00;;
19965;SDS011;10144;50.874;4.762;2023-08-21T02:05:04;7.82;;;2.85;;
19965;SDS011;10144;50.874;4.762;2023-08-21T02:07:33;6.65;;;2.50;;
19965;SDS011;10144;50.874;4.762;2023-08-21T02:10:01;17.13;;;2.78;;
19965;SDS011;10144;50.874;4.762;2023-08-21T02:12:27;7.72;;;2.72;;
19965;SDS011;10144;50.874;4.762;2023-08-21T02:14:54;11.07;;;2.47;;
19965;SDS011;10144;50.874;4.762;2023-08-21T02:17:21;12.32;;;2.78;;
19965;SDS011;10144;50.874;4.762;2023-08-21T02:19:48;10.30;;;3.33;;
19965;SDS011;10144;50.874;4.762;2023-08-21T02:22:16;10.18;;;2.97;;
19965;SDS011;10144;50.874;4.762;2023-08-21T02:24:42;12.30;;;2.95;;
19965;SDS011;10144;50.874;4.762;2023-08-21T02:27:08;9.07;;;2.60;;
19965;SDS011;10144;50.874;4.762;2023-08-21T02:29:35;10.32;;;3.08;;
19965;SDS011;10144;50.874;4.762;2023-08-21T02:32:01;22.52;;;3.28;;
19965;SDS011;10144;50.874;4.762;2023-08-21T02:34:26;9.98;;;2.97;;
19965;SDS011;10144;50.874;4.762;2023-08-21T02:36:58;10.48;;;3.03;;
19965;SDS011;10144;50.874;4.762;2023-08-21T02:39:30;8.50;;;2.72;;
19965;SDS011;10144;50.874;4.762;2023-08-21T02:41:58;10.32;;;2.60;;
19965;SDS011;10144;50.874;4.762;2023-08-21T02:44:24;11.50;;;3.22;;
19965;SDS011;10144;50.874;4.762;2023-08-21T02:46:50;10.38;;;3.30;;
19965;SDS011;10144;50.874;4.762;2023-08-21T02:49:19;10.77;;;3.22;;
19965;SDS011;10144;50.874;4.762;2023-08-21T02:51:44;8.23;;;2.55;;
19965;SDS011;10144;50.874;4.762;2023-08-21T02:54:10;7.65;;;3.03;;
19965;SDS011;10144;50.874;4.762;2023-08-21T02:56:36;9.38;;;2.90;;
19965;SDS011;10144;50.874;4.762;2023-08-21T02:59:07;10.27;;;3.03;;
19965;SDS011;10144;50.874;4.762;2023-08-21T03:01:36;9.30;;;3.10;;
19965;SDS011;10144;50.874;4.762;2023-08-21T03:04:03;12.43;;;3.08;;
19965;SDS011;10144;50.874;4.762;2023-08-21T03:06:35;8.38;;;3.03;;
19965;SDS011;10144;50.874;4.762;2023-08-21T03:09:03;8.02;;;3.05;;
19965;SDS011;10144;50.874;4.762;2023-08-21T03:11:29;14.70;;;3.30;;
19965;SDS011;10144;50.874;4.762;2023-08-21T03:13:55;9.10;;;3.05;;
19965;SDS011;10144;50.874;4.762;2023-08-21T03:16:24;9.02;;;3.50;;
19965;SDS011;10144;50.874;4.762;2023-08-21T03:19:00;10.20;;;3.35;;
19965;SDS011;10144;50.874;4.762;2023-08-21T03:23:57;11.43;;;3.50;;
19965;SDS011;10144;50.874;4.762;2023-08-21T03:26:28;12.82;;;3.83;;
19965;SDS011;10144;50.874;4.762;2023-08-21T03:28:53;11.25;;;3.38;;
19965;SDS011;10144;50.874;4.762;2023-08-21T03:31:25;12.55;;;3.45;;
19965;SDS011;10144;50.874;4.762;2023-08-21T03:33:57;12.77;;;3.33;;
19965;SDS011;10144;50.874;4.762;2023-08-21T03:36:24;12.10;;;3.50;;
19965;SDS011;10144;50.874;4.762;2023-08-21T03:39:02;7.93;;;3.08;;
19965;SDS011;10144;50.874;4.762;2023-08-21T03:41:31;10.27;;;3.33;;
19965;SDS011;10144;50.874;4.762;2023-08-21T03:44:03;9.80;;;3.35;;
19965;SDS011;10144;50.874;4.762;2023-08-21T03:46:30;11.00;;;3.42;;
19965;SDS011;10144;50.874;4.762;2023-08-21T03:48:58;11.95;;;3.40;;
19965;SDS011;10144;50.874;4.762;2023-08-21T03:51:24;8.57;;;3.15;;
19965;SDS011;10144;50.874;4.762;2023-08-21T03:53:50;9.60;;;3.50;;
19965;SDS011;10144;50.874;4.762;2023-08-21T03:56:17;11.63;;;3.22;;
19965;SDS011;10144;50.874;4.762;2023-08-21T03:58:47;9.55;;;3.20;;
19965;SDS011;10144;50.874;4.762;2023-08-21T04:01:13;7.85;;;3.22;;
19965;SDS011;10144;50.874;4.762;2023-08-21T04:03:38;11.93;;;3.38;;
19965;SDS011;10144;50.874;4.762;2023-08-21T04:06:04;8.32;;;3.22;;
19965;SDS011;10144;50.874;4.762;2023-08-21T04:08:31;10.25;;;3.08;;
19965;SDS011;10144;50.874;4.762;2023-08-21T04:10:58;11.38;;;3.33;;
19965;SDS011;10144;50.874;4.762;2023-08-21T04:13:26;15.43;;;3.35;;
19965;SDS011;10144;50.874;4.762;2023-08-21T04:15:53;12.60;;;3.15;;
19965;SDS011;10144;50.874;4.762;2023-08-21T04:18:19;17.30;;;3.47;;
19965;SDS011;10144;50.874;4.762;2023-08-21T04:20:49;13.43;;;3.50;;
19965;SDS011;10144;50.874;4.762;2023-08-21T04:23:15;15.77;;;3.28;;
19965;SDS011;10144;50.874;4.762;2023-08-21T04:25:41;15.10;;;3.50;;
19965;SDS011;10144;50.874;4.762;2023-08-21T04:28:08;10.48;;;3.53;;
19965;SDS011;10144;50.874;4.762;2023-08-21T04:30:36;18.30;;;3.35;;
19965;SDS011;10144;50.874;4.762;2023-08-21T04:33:02;13.63;;;3.20;;
19965;SDS011;10144;50.874;4.762;2023-08-21T04:35:28;14.77;;;3.70;;
19965;SDS011;10144;50.874;4.762;2023-08-21T04:37:53;10.68;;;3.70;;
19965;SDS011;10144;50.874;4.762;2023-08-21T04:40:20;15.57;;;3.88;;
19965;SDS011;10144;50.874;4.762;2023-08-21T04:42:53;14.00;;;4.00;;
19965;SDS011;10144;50.874;4.762;2023-08-21T04:45:18;17.52;;;4.05;;
19965;SDS011;10144;50.874;4.762;2023-08-21T04:47:44;10.57;;;3.50;;
19965;SDS011;10144;50.874;4.762;2023-08-21T04:50:11;15.13;;;3.80;;
19965;SDS011;10144;50.874;4.762;2023-08-21T04:52:37;16.50;;;3.80;;
19965;SDS011;10144;50.874;4.762;2023-08-21T04:55:03;14.38;;;3.78;;
19965;SDS011;10144;50.874;4.762;2023-08-21T04:57:29;13.13;;;4.13;;
19965;SDS011;10144;50.874;4.762;2023-08-21T04:59:56;11.65;;;3.75;;
19965;SDS011;10144;50.874;4.762;2023-08-21T05:02:21;10.82;;;4.18;;
19965;SDS011;10144;50.874;4.762;2023-08-21T05:04:47;12.15;;;3.88;;
19965;SDS011;10144;50.874;4.762;2023-08-21T05:07:13;10.88;;;3.90;;
19965;SDS011;10144;50.874;4.762;2023-08-21T05:09:40;10.38;;;3.92;;
19965;SDS011;10144;50.874;4.762;2023-08-21T05:12:13;13.75;;;4.15;;
19965;SDS011;10144;50.874;4.762;2023-08-21T05:14:41;13.73;;;3.65;;
19965;SDS011;10144;50.874;4.762;2023-08-21T05:17:10;11.77;;;3.67;;
19965;SDS011;10144;50.874;4.762;2023-08-21T05:19:36;11.15;;;3.70;;
19965;SDS011;10144;50.874;4.762;2023-08-21T05:22:01;17.05;;;3.78;;
19965;SDS011;10144;50.874;4.762;2023-08-21T05:24:27;10.20;;;3.67;;
19965;SDS011;10144;50.874;4.762;2023-08-21T05:26:54;11.68;;;3.58;;
19965;SDS011;10144;50.874;4.762;2023-08-21T05:29:20;10.75;;;4.07;;
19965;SDS011;10144;50.874;4.762;2023-08-21T05:31:46;12.55;;;4.32;;
19965;SDS011;10144;50.874;4.762;2023-08-21T05:34:14;13.95;;;3.78;;
19965;SDS011;10144;50.874;4.762;2023-08-21T05:36:39;11.23;;;3.65;;
19965;SDS011;10144;50.874;4.762;2023-08-21T05:39:05;13.82;;;3.88;;
19965;SDS011;10144;50.874;4.762;2023-08-21T05:41:31;19.42;;;3.60;;
19965;SDS011;10144;50.874;4.762;2023-08-21T05:43:58;10.45;;;3.88;;
19965;SDS011;10144;50.874;4.762;2023-08-21T05:46:24;11.70;;;3.63;;
19965;SDS011;10144;50.874;4.762;2023-08-21T05:48:49;7.53;;;3.33;;
19965;SDS011;10144;50.874;4.762;2023-08-21T05:51:15;13.82;;;3.60;;
19965;SDS011;10144;50.874;4.762;2023-08-21T05:53:41;10.90;;;3.13;;
19965;SDS011;10144;50.874;4.762;2023-08-21T05:56:06;9.95;;;3.13;;
19965;SDS011;10144;50.874;4.762;2023-08-21T05:58:32;12.18;;;3.17;;
19965;SDS011;10144;50.874;4.762;2023-08-21T06:00:58;10.77;;;3.22;;
19965;SDS011;10144;50.874;4.762;2023-08-21T06:03:24;11.73;;;2.88;;
19965;SDS011;10144;50.874;4.762;2023-08-21T06:05:50;11.88;;;3.08;;
19965;SDS011;10144;50.874;4.762;2023-08-21T06:08:15;7.10;;;2.60;;
19965;SDS011;10144;50.874;4.762;2023-08-21T06:10:41;9.27;;;2.60;;
19965;SDS011;10144;50.874;4.762;2023-08-21T06:13:08;9.85;;;2.50;;
19965;SDS011;10144;50.874;4.762;2023-08-21T06:15:35;9.35;;;2.83;;
19965;SDS011;10144;50.874;4.762;2023-08-21T06:18:01;10.73;;;2.83;;
19965;SDS011;10144;50.874;4.762;2023-08-21T06:20:29;8.75;;;2.60;;
19965;SDS011;10144;50.874;4.762;2023-08-21T06:22:55;8.90;;;3.05;;
19965;SDS011;10144;50.874;4.762;2023-08-21T06:25:23;10.25;;;3.10;;
19965;SDS011;10144;50.874;4.762;2023-08-21T06:27:48;11.57;;;3.35;;
19965;SDS011;10144;50.874;4.762;2023-08-21T06:30:14;9.55;;;2.60;;
19965;SDS011;10144;50.874;4.762;2023-08-21T06:32:43;7.07;;;2.90;;
19965;SDS011;10144;50.874;4.762;2023-08-21T06:35:09;10.27;;;2.75;;
19965;SDS011;10144;50.874;4.762;2023-08-21T06:37:35;9.05;;;2.58;;
19965;SDS011;10144;50.874;4.762;2023-08-21T06:40:01;10.52;;;2.42;;
19965;SDS011;10144;50.874;4.762;2023-08-21T06:42:28;11.25;;;2.47;;
19965;SDS011;10144;50.874;4.762;2023-08-21T06:44:56;7.85;;;2.53;;
19965;SDS011;10144;50.874;4.762;2023-08-21T06:49:51;12.68;;;2.30;;
19965;SDS011;10144;50.874;4.762;2023-08-21T06:52:17;7.13;;;2.40;;
19965;SDS011;10144;50.874;4.762;2023-08-21T06:54:44;10.23;;;2.42;;
19965;SDS011;10144;50.874;4.762;2023-08-21T06:57:09;8.52;;;2.58;;
19965;SDS011;10144;50.874;4.762;2023-08-21T06:59:35;6.35;;;2.30;;
19965;SDS011;10144;50.874;4.762;2023-08-21T07:02:04;11.60;;;2.70;;
19965;SDS011;10144;50.874;4.762;2023-08-21T07:04:31;7.60;;;2.35;;
19965;SDS011;10144;50.874;4.762;2023-08-21T07:07:00;9.50;;;2.50;;
19965;SDS011;10144;50.874;4.762;2023-08-21T07:09:26;9.85;;;2.10;;
19965;SDS011;10144;50.874;4.762;2023-08-21T07:11:52;10.00;;;2.50;;
19965;SDS011;10144;50.874;4.762;2023-08-21T07:14:17;9.65;;;3.00;;
19965;SDS011;10144;50.874;4.762;2023-08-21T07:16:44;9.02;;;2.33;;
19965;SDS011;10144;50.874;4.762;2023-08-21T07:19:09;10.55;;;2.67;;
19965;SDS011;10144;50.874;4.762;2023-08-21T07:21:35;11.00;;;2.55;;
19965;SDS011;10144;50.874;4.762;2023-08-21T07:24:03;8.80;;;2.30;;
19965;SDS011;10144;50.874;4.762;2023-08-21T07:26:30;9.95;;;2.85;;
19965;SDS011;10144;50.874;4.762;2023-08-21T07:28:55;10.63;;;2.42;;
19965;SDS011;10144;50.874;4.762;2023-08-21T07:31:22;10.50;;;2.38;;
19965;SDS011;10144;50.874;4.762;2023-08-21T07:33:47;8.93;;;2.30;;
19965;SDS011;10144;50.874;4.762;2023-08-21T07:36:13;10.13;;;2.17;;
19965;SDS011;10144;50.874;4.762;2023-08-21T07:38:42;10.88;;;2.60;;
19965;SDS011;10144;50.874;4.762;2023-08-21T07:41:09;7.28;;;2.03;;
19965;SDS011;10144;50.874;4.762;2023-08-21T07:43:36;10.32;;;2.40;;
19965;SDS011;10144;50.874;4.762;2023-08-21T07:46:05;12.23;;;2.58;;
19965;SDS011;10144;50.874;4.762;2023-08-21T07:48:34;10.07;;;2.35;;
19965;SDS011;10144;50.874;4.762;2023-08-21T07:51:01;8.68;;;2.35;;
19965;SDS011;10144;50.874;4.762;2023-08-21T07:53:27;8.88;;;2.20;;
19965;SDS011;10144;50.874;4.762;2023-08-21T07:55:52;9.93;;;2.35;;
19965;SDS011;10144;50.874;4.762;2023-08-21T07:58:18;7.60;;;2.22;;
19965;SDS011;10144;50.874;4.762;2023-08-21T08:00:44;7.13;;;2.25;;
19965;SDS011;10144;50.874;4.762;2023-08-21T08:03:10;11.13;;;2.13;;
19965;SDS011;10144;50.874;4.762;2023-08-21T08:05:39;12.27;;;2.03;;
19965;SDS011;10144;50.874;4.762;2023-08-21T08:08:06;9.45;;;2.90;;
19965;SDS011;10144;50.874;4.762;2023-08-21T08:10:36;11.80;;;2.33;;
19965;SDS011;10144;50.874;4.762;2023-08-21T08:13:04;8.20;;;2.17;;
19965;SDS011;10144;50.874;4.762;2023-08-21T08:15:31;7.35;;;1.95;;
19965;SDS011;10144;50.874;4.762;2023-08-21T08:17:56;6.55;;;1.80;;
19965;SDS011;10144;50.874;4.762;2023-08-21T08:20:22;9.98;;;2.00;;
19965;SDS011;10144;50.874;4.762;2023-08-21T08:22:48;9.48;;;2.35;;
19965;SDS011;10144;50.874;4.762;2023-08-21T08:25:13;7.97;;;2.40;;
19965;SDS011;10144;50.874;4.762;2023-08-21T08:27:39;8.35;;;2.40;;
19965;SDS011;10144;50.874;4.762;2023-08-21T08:30:05;10.80;;;2.50;;
19965;SDS011;10144;50.874;4.762;2023-08-21T08:32:31;8.93;;;2.55;;
19965;SDS011;10144;50.874;4.762;2023-08-21T08:34:57;9.02;;;2.35;;
19965;SDS011;10144;50.874;4.762;2023-08-21T08:37:23;13.00;;;2.78;;
19965;SDS011;10144;50.874;4.762;2023-08-21T08:39:48;14.48;;;2.70;;
19965;SDS011;10144;50.874;4.762;2023-08-21T08:42:14;9.60;;;2.85;;
19965;SDS011;10144;50.874;4.762;2023-08-21T08:44:41;11.07;;;2.50;;
19965;SDS011;10144;50.874;4.762;2023-08-21T08:47:08;9.88;;;2.67;;
19965;SDS011;10144;50.874;4.762;2023-08-21T08:49:39;14.32;;;2.72;;
19965;SDS011;10144;50.874;4.762;2023-08-21T08:52:05;12.05;;;2.35;;
19965;SDS011;10144;50.874;4.762;2023-08-21T08:54:31;11.32;;;2.58;;
19965;SDS011;10144;50.874;4.762;2023-08-21T08:56:58;13.57;;;2.60;;
19965;SDS011;10144;50.874;4.762;2023-08-21T08:59:23;10.10;;;2.40;;
19965;SDS011;10144;50.874;4.762;2023-08-21T09:01:49;11.13;;;2.42;;
19965;SDS011;10144;50.874;4.762;2023-08-21T09:04:15;6.30;;;2.20;;
19965;SDS011;10144;50.874;4.762;2023-08-21T09:06:41;6.28;;;2.25;;
19965;SDS011;10144;50.874;4.762;2023-08-21T09:09:07;10.93;;;2.05;;
19965;SDS011;10144;50.874;4.762;2023-08-21T09:11:35;6.22;;;1.77;;
19965;SDS011;10144;50.874;4.762;2023-08-21T09:14:06;6.80;;;2.00;;
19965;SDS011;10144;50.874;4.762;2023-08-21T09:16:32;17.30;;;2.22;;
19965;SDS011;10144;50.874;4.762;2023-08-21T09:18:58;7.47;;;2.03;;
19965;SDS011;10144;50.874;4.762;2023-08-21T09:21:24;8.32;;;2.17;;
19965;SDS011;10144;50.874;4.762;2023-08-21T09:24:01;12.00;;;2.20;;
19965;SDS011;10144;50.874;4.762;2023-08-21T09:26:30;8.73;;;2.10;;
19965;SDS011;10144;50.874;4.762;2023-08-21T09:29:00;40.20;;;3.83;;
19965;SDS011;10144;50.874;4.762;2023-08-21T09:31:30;10.60;;;2.10;;
19965;SDS011;10144;50.874;4.762;2023-08-21T09:33:58;5.25;;;1.92;;
19965;SDS011;10144;50.874;4.762;2023-08-21T09:36:25;4.30;;;1.77;;
19965;SDS011;10144;50.874;4.762;2023-08-21T09:38:51;15.05;;;2.30;;
19965;SDS011;10144;50.874;4.762;2023-08-21T09:41:21;7.78;;;1.80;;
19965;SDS011;10144;50.874;4.762;2023-08-21T09:43:47;8.70;;;1.63;;
19965;SDS011;10144;50.874;4.762;2023-08-21T09:46:17;8.27;;;1.90;;
19965;SDS011;10144;50.874;4.762;2023-08-21T09:48:48;6.90;;;1.58;;
19965;SDS011;10144;50.874;4.762;2023-08-21T09:51:16;6.82;;;1.80;;
19965;SDS011;10144;50.874;4.762;2023-08-21T09:53:42;3.88;;;1.48;;
19965;SDS011;10144;50.874;4.762;2023-08-21T09:56:07;2.78;;;1.20;;
19965;SDS011;10144;50.874;4.762;2023-08-21T09:58:36;5.05;;;1.60;;
19965;SDS011;10144;50.874;4.762;2023-08-21T10:01:06;4.43;;;1.60;;
19965;SDS011;10144;50.874;4.762;2023-08-21T10:03:38;5.03;;;1.50;;
19965;SDS011;10144;50.874;4.762;2023-08-21T10:06:05;5.55;;;1.40;;
19965;SDS011;10144;50.874;4.762;2023-08-21T10:08:33;5.45;;;1.45;;
19965;SDS011;10144;50.874;4.762;2023-08-21T10:11:04;6.97;;;1.90;;
19965;SDS011;10144;50.874;4.762;2023-08-21T10:13:32;12.20;;;2.28;;
19965;SDS011;10144;50.874;4.762;2023-08-21T10:18:32;9.98;;;1.80;;
19965;SDS011;10144;50.874;4.762;2023-08-21T10:21:12;8.18;;;2.30;;
19965;SDS011;10144;50.874;4.762;2023-08-21T10:23:40;7.93;;;2.20;;
19965;SDS011;10144;50.874;4.762;2023-08-21T10:26:07;6.30;;;2.00;;
19965;SDS011;10144;50.874;4.762;2023-08-21T10:32:01;7.38;;;2.10;;
19965;SDS011;10144;50.874;4.762;2023-08-21T10:34:09;6.65;;;1.80;;
19965;SDS011;10144;50.874;4.762;2023-08-21T10:39:16;7.20;;;1.90;;
19965;SDS011;10144;50.874;4.762;2023-08-21T10:42:02;5.20;;;1.83;;
19965;SDS011;10144;50.874;4.762;2023-08-21T10:49:52;7.30;;;1.90;;
19965;SDS011;10144;50.874;4.762;2023-08-21T10:52:23;6.80;;;2.00;;
19965;SDS011;10144;50.874;4.762;2023-08-21T10:54:54;5.78;;;2.08;;
19965;SDS011;10144;50.874;4.762;2023-08-21T10:57:22;9.48;;;2.38;;
19965;SDS011;10144;50.874;4.762;2023-08-21T11:00:07;7.55;;;2.22;;
19965;SDS011;10144;50.874;4.762;2023-08-21T11:02:36;7.28;;;2.22;;
19965;SDS011;10144;50.874;4.762;2023-08-21T11:05:06;6.00;;;1.88;;
19965;SDS011;10144;50.874;4.762;2023-08-21T11:07:39;5.38;;;2.05;;
19965;SDS011;10144;50.874;4.762;2023-08-21T11:10:10;4.97;;;1.98;;
19965;SDS011;10144;50.874;4.762;2023-08-21T11:15:21;9.85;;;2.10;;
19965;SDS011;10144;50.874;4.762;2023-08-21T11:17:56;4.68;;;1.95;;
19965;SDS011;10144;50.874;4.762;2023-08-21T11:20:31;6.63;;;2.20;;
19965;SDS011;10144;50.874;4.762;2023-08-21T11:22:58;9.40;;;2.15;;
19965;SDS011;10144;50.874;4.762;2023-08-21T11:25:27;9.52;;;1.98;;
19965;SDS011;10144;50.874;4.762;2023-08-21T11:27:53;9.90;;;2.28;;
19965;SDS011;10144;50.874;4.762;2023-08-21T11:30:21;6.50;;;1.77;;
19965;SDS011;10144;50.874;4.762;2023-08-21T11:32:48;7.20;;;2.13;;
19965;SDS011;10144;50.874;4.762;2023-08-21T11:35:15;6.05;;;1.77;;
19965;SDS011;10144;50.874;4.762;2023-08-21T11:37:44;9.00;;;1.90;;
19965;SDS011;10144;50.874;4.762;2023-08-21T11:40:11;7.15;;;2.03;;
19965;SDS011;10144;50.874;4.762;2023-08-21T11:42:38;8.25;;;2.17;;
19965;SDS011;10144;50.874;4.762;2023-08-21T11:45:03;4.03;;;1.70;;
19965;SDS011;10144;50.874;4.762;2023-08-21T11:47:30;4.60;;;1.83;;
19965;SDS011;10144;50.874;4.762;2023-08-21T11:50:01;6.35;;;2.10;;
19965;SDS011;10144;50.874;4.762;2023-08-21T11:52:29;3.60;;;1.60;;
19965;SDS011;10144;50.874;4.762;2023-08-21T11:54:56;5.07;;;1.60;;
19965;SDS011;10144;50.874;4.762;2023-08-21T11:57:22;6.80;;;1.65;;
19965;SDS011;10144;50.874;4.762;2023-08-21T11:59:52;6.40;;;1.95;;
19965;SDS011;10144;50.874;4.762;2023-08-21T12:02:26;4.10;;;1.70;;
19965;SDS011;10144;50.874;4.762;2023-08-21T12:05:02;4.18;;;1.80;;
19965;SDS011;10144;50.874;4.762;2023-08-21T12:07:30;7.93;;;2.08;;
19965;SDS011;10144;50.874;4.762;2023-08-21T12:09:56;6.32;;;1.88;;
19965;SDS011;10144;50.874;4.762;2023-08-21T12:12:22;6.88;;;1.92;;
19965;SDS011;10144;50.874;4.762;2023-08-21T12:14:48;4.18;;;1.90;;
19965;SDS011;10144;50.874;4.762;2023-08-21T12:17:14;4.80;;;1.83;;
19965;SDS011;10144;50.874;4.762;2023-08-21T12:19:40;8.07;;;1.90;;
19965;SDS011;10144;50.874;4.762;2023-08-21T12:22:06;6.22;;;1.95;;
19965;SDS011;10144;50.874;4.762;2023-08-21T12:24:33;6.85;;;1.70;;
19965;SDS011;10144;50.874;4.762;2023-08-21T12:26:59;6.63;;;1.80;;
19965;SDS011;10144;50.874;4.762;2023-08-21T12:29:24;4.07;;;1.45;;
19965;SDS011;10144;50.874;4.762;2023-08-21T12:31:50;5.18;;;1.60;;
19965;SDS011;10144;50.874;4.762;2023-08-21T12:34:16;5.70;;;2.00;;
19965;SDS011;10144;50.874;4.762;2023-08-21T12:36:41;6.60;;;1.70;;
19965;SDS011;10144;50.874;4.762;2023-08-21T12:39:07;8.30;;;1.85;;
19965;SDS011;10144;50.874;4.762;2023-08-21T12:41:34;6.65;;;1.70;;
19965;SDS011;10144;50.874;4.762;2023-08-21T12:43:59;3.53;;;1.50;;
19965;SDS011;10144;50.874;4.762;2023-08-21T12:46:26;8.75;;;2.22;;
19965;SDS011;10144;50.874;4.762;2023-08-21T12:48:53;9.05;;;2.17;;
19965;SDS011;10144;50.874;4.762;2023-08-21T12:51:19;6.03;;;1.95;;
19965;SDS011;10144;50.874;4.762;2023-08-21T12:53:44;4.03;;;1.70;;
19965;SDS011;10144;50.874;4.762;2023-08-21T12:56:10;5.90;;;1.90;;
19965;SDS011;10144;50.874;4.762;2023-08-21T12:58:36;5.15;;;2.13;;
19965;SDS011;10144;50.874;4.762;2023-08-21T13:01:01;5.43;;;1.98;;
19965;SDS011;10144;50.874;4.762;2023-08-21T13:03:30;13.95;;;1.80;;
19965;SDS011;10144;50.874;4.762;2023-08-21T13:05:58;4.82;;;1.92;;
19965;SDS011;10144;50.874;4.762;2023-08-21T13:08:23;3.42;;;1.70;;
19965;SDS011;10144;50.874;4.762;2023-08-21T13:10:49;5.68;;;1.95;;
19965;SDS011;10144;50.874;4.762;2023-08-21T13:13:15;6.53;;;1.88;;
19965;SDS011;10144;50.874;4.762;2023-08-21T13:15:40;4.78;;;1.65;;
19965;SDS011;10144;50.874;4.762;2023-08-21T13:18:09;4.75;;;1.80;;
19965;SDS011;10144;50.874;4.762;2023-08-21T13:20:35;7.03;;;1.83;;
19965;SDS011;10144;50.874;4.762;2023-08-21T13:23:01;2.67;;;1.65;;
19965;SDS011;10144;50.874;4.762;2023-08-21T13:25:27;5.78;;;2.00;;
19965;SDS011;10144;50.874;4.762;2023-08-21T13:27:53;4.65;;;1.70;;
19965;SDS011;10144;50.874;4.762;2023-08-21T13:30:19;7.25;;;1.80;;
19965;SDS011;10144;50.874;4.762;2023-08-21T13:32:45;5.18;;;1.60;;
19965;SDS011;10144;50.874;4.762;2023-08-21T13:35:11;6.78;;;1.90;;
19965;SDS011;10144;50.874;4.762;2023-08-21T13:37:37;3.53;;;1.65;;
19965;SDS011;10144;50.874;4.762;2023-08-21T13:40:03;8.55;;;1.98;;
19965;SDS011;10144;50.874;4.762;2023-08-21T13:42:37;4.05;;;1.90;;
19965;SDS011;10144;50.874;4.762;2023-08-21T13:45:06;5.07;;;1.80;;
19965;SDS011;10144;50.874;4.762;2023-08-21T13:47:37;5.80;;;2.10;;
19965;SDS011;10144;50.874;4.762;2023-08-21T13:50:06;8.50;;;1.80;;
19965;SDS011;10144;50.874;4.762;2023-08-21T13:52:33;5.45;;;1.80;;
19965;SDS011;10144;50.874;4.762;2023-08-21T13:54:59;5.97;;;1.70;;
19965;SDS011;10144;50.874;4.762;2023-08-21T13:57:25;4.10;;;1.90;;
19965;SDS011;10144;50.874;4.762;2023-08-21T13:59:51;6.68;;;1.92;;
19965;SDS011;10144;50.874;4.762;2023-08-21T14:02:17;4.53;;;1.83;;
19965;SDS011;10144;50.874;4.762;2023-08-21T14:04:43;10.57;;;1.98;;
19965;SDS011;10144;50.874;4.762;2023-08-21T14:07:10;7.82;;;2.00;;
19965;SDS011;10144;50.874;4.762;2023-08-21T14:09:37;4.57;;;1.80;;
19965;SDS011;10144;50.874;4.762;2023-08-21T14:12:03;7.38;;;1.90;;
19965;SDS011;10144;50.874;4.762;2023-08-21T14:14:29;8.07;;;1.80;;
19965;SDS011;10144;50.874;4.762;2023-08-21T14:16:54;4.38;;;1.90;;
19965;SDS011;10144;50.874;4.762;2023-08-21T14:19:20;9.60;;;2.00;;
19965;SDS011;10144;50.874;4.762;2023-08-21T14:21:47;5.55;;;1.95;;
19965;SDS011;10144;50.874;4.762;2023-08-21T14:24:12;8.88;;;2.10;;
19965;SDS011;10144;50.874;4.762;2023-08-21T14:26:38;8.27;;;1.83;;
19965;SDS011;10144;50.874;4.762;2023-08-21T14:29:05;7.25;;;2.03;;
19965;SDS011;10144;50.874;4.762;2023-08-21T14:31:31;11.90;;;2.30;;
19965;SDS011;10144;50.874;4.762;2023-08-21T14:33:56;11.45;;;2.33;;
19965;SDS011;10144;50.874;4.762;2023-08-21T14:36:22;6.72;;;2.10;;
19965;SDS011;10144;50.874;4.762;2023-08-21T14:38:48;6.13;;;1.70;;
19965;SDS011;10144;50.874;4.762;2023-08-21T14:41:15;7.18;;;2.15;;
19965;SDS011;10144;50.874;4.762;2023-08-21T14:43:41;6.18;;;1.88;;
19965;SDS011;10144;50.874;4.762;2023-08-21T14:46:08;15.57;;;2.75;;
19965;SDS011;10144;50.874;4.762;2023-08-21T14:48:33;7.93;;;2.15;;
19965;SDS011;10144;50.874;4.762;2023-08-21T14:50:59;6.28;;;2.22;;
19965;SDS011;10144;50.874;4.762;2023-08-21T14:53:25;7.60;;;2.13;;
19965;SDS011;10144;50.874;4.762;2023-08-21T14:55:50;6.88;;;1.98;;
19965;SDS011;10144;50.874;4.762;2023-08-21T14:58:16;14.45;;;2.30;;
19965;SDS011;10144;50.874;4.762;2023-08-21T15:00:42;9.05;;;1.88;;
19965;SDS011;10144;50.874;4.762;2023-08-21T15:03:07;4.05;;;1.90;;
19965;SDS011;10144;50.874;4.762;2023-08-21T15:05:33;7.78;;;2.28;;
19965;SDS011;10144;50.874;4.762;2023-08-21T15:07:58;7.00;;;2.10;;
19965;SDS011;10144;50.874;4.762;2023-08-21T15:10:26;7.70;;;2.03;;
19965;SDS011;10144;50.874;4.762;2023-08-21T15:12:52;5.45;;;2.20;;